NCAR-RAP Real-Time Weather Data

Output produced by METARs form (26 May 2022  07:20 UTC)
found at http://weather.rap.ucar.edu/surface/
 
KLAX 260653Z 26007KT 9SM OVC011 17/13 A2993 RMK AO2 SLP133 T01670133
KLAX 260553Z VRB03KT 9SM BKN011 17/13 A2993 RMK AO2 SLP133 T01670133 10189 20161 51013
KLAX 260453Z 21004KT 7SM OVC011 17/13 A2992 RMK AO2 SLP129 T01670133
KLAX 260353Z 27006KT 7SM OVC010 17/13 A2991 RMK AO2 SLP126 T01670133
KLAX 260253Z 26009KT 7SM OVC011 17/13 A2989 RMK AO2 SLP121 T01670133 53006
KLAX 260153Z 25010KT 8SM OVC010 17/13 A2988 RMK AO2 SLP118 T01720133
KLAX 260053Z 25010KT 8SM OVC011 18/14 A2987 RMK AO2 SLP114 T01780139
KLAX 252353Z 26010KT 7SM OVC010 19/14 A2987 RMK AO2 SLP115 T01890139 10211 20183 56008
KLAX 252253Z 25011KT 6SM HZ BKN012 19/14 A2988 RMK AO2 SLP115 T01940144
KLAX 252212Z 25011KT 6SM HZ BKN011 BKN016 20/14 A2989 RMK AO2 T02000144
KLAX 252153Z 26013KT 6SM HZ SCT013 20/14 A2989 RMK AO2 SLP120 T02000144
KLAX 252053Z 26009KT 6SM HZ SCT016 SCT020 21/14 A2990 RMK AO2 SLP122 T02060144 58006
KLAX 252035Z 26009KT 5SM HZ SCT014 SCT020 21/14 A2990 RMK AO2 SCT020 V BKN T02060144
KLAX 251953Z 22007KT 200V260 5SM HZ SCT011 BKN015 20/14 A2991 RMK AO2 SLP125 T02000139
KLAX 251948Z 24008KT 5SM HZ SCT011 BKN015 21/14 A2991 RMK AO2
KLAX 251853Z 27011KT 4SM HZ OVC012 20/14 A2991 RMK AO2 SLP128 T02000144
KLAX 251753Z 26010KT 4SM HZ BKN013 20/14 A2991 RMK AO2 SLP126 T02000144 10200 20161 53013
KLAX 251743Z 27011KT 4SM HZ BKN013 19/14 A2991 RMK AO2 T01940139
KLAX 251653Z 26009KT 5SM HZ FEW005 SCT011 19/14 A2989 RMK AO2 SLP121 T01940144
KLAX 251553Z 26005KT 5SM HZ FEW006 SCT010 18/14 A2988 RMK AO2 SLP119 T01830139
KLAX 251453Z 25006KT 4SM HZ FEW004 FEW008 18/14 A2987 RMK AO2 SLP114 T01830139 53005
KLAX 251353Z VRB03KT 4SM HZ FEW004 FEW008 17/13 A2986 RMK AO2 SLP110 T01720133
KLAX 251253Z 00000KT 4SM HZ FEW004 FEW009 17/13 A2985 RMK AO2 SLP107 T01670133
KLAX 251233Z 00000KT 4SM HZ FEW004 SCT010 16/13 A2985 RMK AO2 T01610128
KLAX 251153Z 00000KT 4SM HZ FEW008 BKN010 16/13 A2986 RMK AO2 SLP109 T01610133 10172 20161 55000
KLAX 251053Z 05003KT 4SM HZ FEW008 OVC010 17/13 A2985 RMK AO2 SLP107 T01670133
KLAX 251050Z 00000KT 4SM HZ FEW008 OVC010 17/13 A2985 RMK AO2
KLAX 250953Z 04004KT 5SM HZ OVC010 17/13 A2985 RMK AO2 SLP106 T01670133
KLAX 250939Z VRB03KT 6SM HZ OVC010 17/14 A2985 RMK AO2 T01670139
KLAX 250853Z 00000KT 6SM HZ BKN009 17/13 A2986 RMK AO2 SLP108 T01670133 58006
KLAX 250753Z 00000KT 7SM OVC008 17/13 A2986 RMK AO2 SLP110 T01670133 402000156
KLAX 250653Z 00000KT 7SM OVC008 16/14 A2987 RMK AO2 SLP115 T01610139
KLAX 250553Z 25004KT 7SM OVC008 16/14 A2988 RMK AO2 SLP115 T01610139 10189 20156 51015
KLAX 250453Z 23005KT 8SM OVC008 16/13 A2986 RMK AO2 SLP110 T01610133
KLAX 250353Z 26007KT 7SM OVC007 16/13 A2985 RMK AO2 SLP106 T01610133
KLAX 250253Z 26007KT 7SM BKN008 16/13 A2983 RMK AO2 SLP099 T01610133 53005
KLAX 250153Z 25009KT 8SM OVC008 17/13 A2982 RMK AO2 SLP097 T01670133
KLAX 250053Z 25009KT 8SM OVC009 17/13 A2981 RMK AO2 SLP093 T01720133
KLAX 250018Z 26011KT 9SM BKN010 18/13 A2981 RMK AO2 T01780133
KLAX 242353Z 25012KT 9SM SCT011 19/13 A2981 RMK AO2 SLP094 T01890133 10200 20183 56011
KLAX 242253Z 28012KT 10SM FEW013 19/13 A2982 RMK AO2 SLP097 T01890133
KLAX 242153Z 24012KT 10SM FEW025 20/13 A2983 RMK AO2 SLP100 T02000133
KLAX 242053Z 27011KT 9SM SCT014 SCT025 19/13 A2984 RMK AO2 SLP105 SCT025 V BKN T01940133 58009
KLAX 242010Z 28011KT 9SM SCT012 SCT022 19/13 A2985 RMK AO2 SCT022 V BKN T01940128
KLAX 241953Z 25009KT 10SM SCT013 BKN022 19/13 A2986 RMK AO2 SLP110 SCT V BKN T01940128
KLAX 241853Z 25008KT 7SM FEW016 SCT021 19/13 A2987 RMK AO2 SLP112 T01890128
KLAX 241806Z 25007KT 7SM SCT016 SCT021 18/13 A2987 RMK AO2 T01830128
KLAX 241753Z 24008KT 7SM BKN016 BKN021 19/13 A2987 RMK AO2 SLP114 T01890128 10189 20156 52005
KLAX 241653Z 27007KT 7SM BKN019 18/13 A2986 RMK AO2 SLP112 T01830128
KLAX 241553Z VRB04KT 6SM HZ BKN015 18/13 A2986 RMK AO2 SLP110 T01780128
KLAX 241533Z 00000KT 6SM HZ BKN015 17/12 A2986 RMK AO2 T01670122
KLAX 241453Z 09005KT 6SM HZ OVC014 17/12 A2985 RMK AO2 SLP108 T01670122 53005
KLAX 241353Z VRB03KT 5SM HZ OVC014 16/12 A2984 RMK AO2 SLP104 T01610122
KLAX 241253Z 02004KT 5SM HZ OVC012 16/12 A2983 RMK AO2 SLP100 T01610122
KLAX 241153Z 11005KT 8SM OVC012 16/12 A2984 RMK AO2 SLP103 T01560122 10167 20156 55005
KLAX 241053Z VRB03KT 9SM OVC012 16/12 A2984 RMK AO2 SLP101 T01560122
KLAX 240953Z 00000KT 9SM OVC014 16/12 A2984 RMK AO2 SLP104 T01610122
KLAX 240853Z 13005KT 10SM OVC014 16/12 A2986 RMK AO2 SLP109 T01610122 56007
KLAX 240832Z 14003KT 10SM OVC014 16/12 A2986 RMK AO2 T01610122
KLAX 240753Z VRB04KT 10SM OVC015 16/12 A2986 RMK AO2 SLP111 T01610122 401940133